Time;durP1;ratioP1;P1;durP2;ratioP2;P2;SDS_P1;SDS_P2;PMS_P1;PMS_P2;Temp;Humidity;BMP_temperature;BMP_pressure;BME280_temperature;BME280_humidity;BME280_pressure;Samples;Min_cycle;Max_cycle;Signal;HPM_P1;HPM_P2
2023/01/20 00:01:38;;;;;;;7.67;5.10;;;0.30;99.90;;;;;;5113947;28;20296;-85
2023/01/20 00:04:07;;;;;;;7.83;5.13;;;0.30;99.90;;;;;;5113368;28;20227;-86
2023/01/20 00:06:35;;;;;;;4.57;4.17;;;0.20;99.90;;;;;;5113470;28;20204;-86
2023/01/20 00:09:06;;;;;;;4.50;4.10;;;0.20;99.90;;;;;;5113690;28;20208;-86
2023/01/20 00:11:34;;;;;;;5.87;5.03;;;0.20;99.90;;;;;;5116329;28;20220;-86
2023/01/20 00:14:03;;;;;;;5.23;4.13;;;0.20;99.90;;;;;;5115426;28;20279;-85
2023/01/20 00:16:32;;;;;;;5.33;4.83;;;0.20;99.90;;;;;;5116077;28;20195;-86
2023/01/20 00:19:00;;;;;;;5.17;4.67;;;0.20;99.90;;;;;;5115785;28;20265;-85
2023/01/20 00:21:28;;;;;;;4.70;4.27;;;0.20;99.90;;;;;;5115902;28;20213;-85
2023/01/20 00:23:57;;;;;;;9.97;5.67;;;0.10;99.90;;;;;;5115659;28;20224;-86
2023/01/20 00:26:26;;;;;;;5.60;4.90;;;0.20;99.90;;;;;;5115326;28;20214;-85
2023/01/20 00:28:56;;;;;;;6.63;5.50;;;0.10;99.90;;;;;;5115638;28;20200;-86
2023/01/20 00:31:26;;;;;;;5.37;4.80;;;0.10;99.90;;;;;;5115505;28;20237;-86
2023/01/20 00:33:56;;;;;;;5.13;4.63;;;0.00;99.90;;;;;;5115517;28;20236;-84
2023/01/20 00:36:26;;;;;;;6.13;5.53;;;0.00;99.90;;;;;;5115234;28;20291;-86
2023/01/20 00:38:55;;;;;;;4.97;4.53;;;0.00;99.90;;;;;;5114716;28;20204;-85
2023/01/20 00:41:23;;;;;;;5.27;4.77;;;-0.10;99.90;;;;;;5115839;28;20255;-86
2023/01/20 00:43:53;;;;;;;11.27;5.50;;;-0.10;99.90;;;;;;5115499;28;20215;-86
2023/01/20 00:46:22;;;;;;;7.10;5.57;;;-0.20;99.90;;;;;;5115476;28;20196;-86
2023/01/20 00:48:50;;;;;;;5.30;4.80;;;-0.20;99.90;;;;;;5114800;28;20199;-85
2023/01/20 00:51:18;;;;;;;7.57;5.83;;;-0.20;99.90;;;;;;5114790;28;20232;-85
2023/01/20 00:53:47;;;;;;;8.33;5.67;;;-0.20;99.90;;;;;;5114599;28;20247;-86
2023/01/20 00:56:15;;;;;;;19.60;6.27;;;-0.20;99.90;;;;;;5115462;28;20298;-85
2023/01/20 00:58:44;;;;;;;8.33;6.13;;;-0.10;99.90;;;;;;5114954;28;20210;-85
2023/01/20 01:01:14;;;;;;;6.70;6.07;;;-0.10;99.90;;;;;;5115029;28;20214;-85
2023/01/20 01:03:43;;;;;;;6.00;5.40;;;-0.10;99.90;;;;;;5115085;28;20215;-86
2023/01/20 01:06:14;;;;;;;7.17;6.47;;;-0.10;99.90;;;;;;5114761;28;20212;-85
2023/01/20 01:08:43;;;;;;;7.90;7.10;;;-0.10;99.90;;;;;;5114538;28;20200;-85
2023/01/20 01:11:12;;;;;;;6.57;5.87;;;-0.20;99.90;;;;;;5114706;28;20202;-85
2023/01/20 01:13:41;;;;;;;6.70;6.00;;;-0.20;99.90;;;;;;5114523;28;20226;-85
2023/01/20 01:16:15;;;;;;;6.27;5.67;;;-0.20;99.90;;;;;;5114765;28;20215;-85
2023/01/20 01:18:43;;;;;;;8.87;6.30;;;-0.20;99.90;;;;;;5114529;28;20207;-85
2023/01/20 01:21:13;;;;;;;6.60;5.90;;;-0.20;99.90;;;;;;5114436;28;20218;-85
2023/01/20 01:23:57;;;;;;;7.10;6.40;;;-0.20;99.90;;;;;;5080681;28;20243;-85
2023/01/20 01:26:25;;;;;;;6.30;5.73;;;-0.20;99.90;;;;;;5113711;28;20207;-85
2023/01/20 01:28:53;;;;;;;5.83;5.33;;;-0.20;99.90;;;;;;5114262;28;20202;-85
2023/01/20 01:31:23;;;;;;;6.53;5.93;;;-0.30;99.90;;;;;;5114300;28;20299;-85
2023/01/20 01:33:51;;;;;;;6.70;5.97;;;-0.30;99.90;;;;;;5114035;28;20281;-85
2023/01/20 01:36:20;;;;;;;9.37;7.10;;;-0.30;99.90;;;;;;5114513;28;20208;-85
2023/01/20 01:38:48;;;;;;;6.30;5.67;;;-0.40;99.90;;;;;;5114117;28;20211;-85
2023/01/20 01:41:26;;;;;;;6.57;5.97;;;-0.40;99.90;;;;;;5114274;28;20252;-85
2023/01/20 01:44:03;;;;;;;5.97;5.37;;;-0.40;99.90;;;;;;5113786;28;20212;-85
2023/01/20 01:46:33;;;;;;;6.10;5.60;;;-0.40;99.90;;;;;;5114097;28;20339;-85
2023/01/20 01:49:06;;;;;;;7.10;6.40;;;-0.40;99.90;;;;;;5114273;28;20200;-85
2023/01/20 01:51:38;;;;;;;7.43;6.73;;;-0.50;99.90;;;;;;5114059;28;20266;-85
2023/01/20 01:54:10;;;;;;;8.53;6.37;;;-0.50;99.90;;;;;;5113760;28;20228;-85
2023/01/20 01:56:40;;;;;;;7.50;6.27;;;-0.50;99.90;;;;;;5113717;28;20212;-85
2023/01/20 01:59:09;;;;;;;13.77;7.50;;;-0.50;99.90;;;;;;5113673;28;20214;-85
2023/01/20 02:01:42;;;;;;;6.83;6.13;;;-0.50;99.90;;;;;;5113972;28;20288;-85
2023/01/20 02:04:13;;;;;;;8.03;6.73;;;-0.50;99.90;;;;;;5114085;28;20227;-85
2023/01/20 02:06:44;;;;;;;9.07;7.27;;;-0.50;99.90;;;;;;5113875;28;20218;-85
2023/01/20 02:09:13;;;;;;;7.70;6.93;;;-0.50;99.90;;;;;;5113451;28;20206;-85
2023/01/20 02:11:47;;;;;;;8.70;7.60;;;-0.40;99.90;;;;;;5113340;28;20204;-86
2023/01/20 02:14:16;;;;;;;9.33;7.50;;;-0.50;99.90;;;;;;5113257;28;20251;-85
2023/01/20 02:16:56;;;;;;;7.13;6.43;;;-0.50;99.90;;;;;;5113606;28;20209;-85
2023/01/20 02:19:47;;;;;;;8.00;7.13;;;-0.50;99.90;;;;;;5114070;28;20196;-84
2023/01/20 02:22:27;;;;;;;13.17;6.33;;;-0.40;99.90;;;;;;5113455;28;20239;-85
2023/01/20 02:25:20;;;;;;;9.33;6.70;;;-0.40;99.90;;;;;;5113484;28;20214;-85
2023/01/20 02:28:27;;;;;;;7.30;6.30;;;-0.40;99.90;;;;;;5113189;28;20204;-85
2023/01/20 02:31:31;;;;;;;7.40;6.57;;;-0.40;99.90;;;;;;5113704;28;20199;-85
2023/01/20 02:34:03;;;;;;;8.63;6.33;;;-0.40;99.90;;;;;;5100235;28;20250;-84
2023/01/20 02:36:37;;;;;;;7.53;6.83;;;-0.40;99.90;;;;;;5113248;28;20213;-85
2023/01/20 02:39:13;;;;;;;7.30;5.87;;;-0.30;99.90;;;;;;5112603;28;20268;-85
2023/01/20 02:41:59;;;;;;;6.70;6.00;;;-0.30;99.90;;;;;;5113653;28;20215;-85
2023/01/20 02:44:35;;;;;;;7.73;6.97;;;-0.30;99.90;;;;;;5113610;28;20203;-85
2023/01/20 02:47:10;;;;;;;7.13;6.43;;;-0.30;99.90;;;;;;5112940;28;20252;-85
2023/01/20 02:49:46;;;;;;;6.30;5.70;;;-0.30;99.90;;;;;;5112937;28;20199;-85
2023/01/20 02:52:19;;;;;;;7.73;6.70;;;-0.30;99.90;;;;;;5112801;28;20218;-85
2023/01/20 02:54:50;;;;;;;6.80;6.10;;;-0.30;99.90;;;;;;5113465;28;20212;-85
2023/01/20 02:57:24;;;;;;;7.13;6.30;;;-0.30;99.90;;;;;;5113218;28;20220;-85
2023/01/20 02:59:56;;;;;;;8.20;5.93;;;-0.40;99.90;;;;;;5113247;28;20207;-85
2023/01/20 03:02:27;;;;;;;6.90;5.90;;;-0.40;99.90;;;;;;5113126;28;20238;-85
2023/01/20 03:05:03;;;;;;;5.63;5.13;;;-0.30;99.90;;;;;;5112982;28;20199;-85
2023/01/20 03:07:35;;;;;;;5.87;5.27;;;-0.30;99.90;;;;;;5112515;28;20214;-85
2023/01/20 03:10:07;;;;;;;6.67;5.60;;;-0.30;99.90;;;;;;5113323;28;20211;-84
2023/01/20 03:12:42;;;;;;;5.37;4.90;;;-0.30;99.90;;;;;;5112862;28;20243;-84
2023/01/20 03:15:11;;;;;;;5.73;4.73;;;-0.30;99.90;;;;;;5112880;28;20202;-84
2023/01/20 03:17:40;;;;;;;6.60;4.83;;;-0.30;99.90;;;;;;5112674;28;20258;-84
2023/01/20 03:20:11;;;;;;;6.23;5.20;;;-0.30;99.90;;;;;;5112571;28;20204;-84
2023/01/20 03:22:40;;;;;;;5.67;5.07;;;-0.30;99.90;;;;;;5113134;28;20218;-84
2023/01/20 03:25:10;;;;;;;5.40;4.63;;;-0.20;99.90;;;;;;5112929;28;20203;-85
2023/01/20 03:27:38;;;;;;;5.07;4.60;;;-0.30;99.90;;;;;;5113018;28;20239;-84
2023/01/20 03:30:13;;;;;;;5.50;5.00;;;-0.20;99.90;;;;;;5112914;28;20200;-83
2023/01/20 03:32:42;;;;;;;6.20;4.80;;;-0.20;99.90;;;;;;5113130;28;20238;-85
2023/01/20 03:35:13;;;;;;;6.40;5.17;;;-0.20;99.90;;;;;;5112521;28;20208;-84
2023/01/20 03:37:41;;;;;;;5.30;4.77;;;-0.20;99.90;;;;;;5112540;28;20273;-84
2023/01/20 03:40:12;;;;;;;5.30;4.80;;;-0.20;99.90;;;;;;5112663;28;20211;-85
2023/01/20 03:42:51;;;;;;;5.73;5.00;;;-0.20;99.90;;;;;;5112413;28;20227;-83
2023/01/20 03:45:25;;;;;;;4.63;4.20;;;-0.20;99.90;;;;;;5112437;28;20211;-85
2023/01/20 03:47:59;;;;;;;4.23;3.83;;;-0.30;99.90;;;;;;5112444;28;20199;-84
2023/01/20 03:50:36;;;;;;;5.20;4.70;;;-0.30;99.90;;;;;;5116917;28;20231;-84
2023/01/20 03:53:12;;;;;;;4.93;4.43;;;-0.30;99.90;;;;;;5116185;28;20219;-85
2023/01/20 03:55:46;;;;;;;4.53;4.20;;;-0.30;99.90;;;;;;5116057;28;20223;-84
2023/01/20 03:58:19;;;;;;;5.13;4.17;;;-0.40;99.90;;;;;;5116088;28;20236;-84
2023/01/20 04:00:49;;;;;;;5.27;4.77;;;-0.40;99.90;;;;;;5116282;28;20208;-85
2023/01/20 04:03:21;;;;;;;5.87;4.20;;;-0.30;99.90;;;;;;5115966;28;20215;-84
2023/01/20 04:05:51;;;;;;;6.30;5.40;;;;;;;;;;5116171;28;20237;-85
2023/01/20 04:08:24;;;;;;;8.77;5.17;;;-0.30;99.90;;;;;;5115595;28;20212;-85
2023/01/20 04:10:55;;;;;;;5.27;4.77;;;-0.30;99.90;;;;;;5115879;28;20248;-84
2023/01/20 04:13:24;;;;;;;4.83;4.33;;;-0.30;99.90;;;;;;5116072;28;20227;-84
2023/01/20 04:15:52;;;;;;;4.77;4.20;;;-0.30;99.90;;;;;;5115771;28;20208;-84
2023/01/20 04:18:23;;;;;;;6.03;4.60;;;-0.30;99.90;;;;;;5115686;28;20234;-84
2023/01/20 04:20:56;;;;;;;7.27;4.33;;;-0.40;99.90;;;;;;5115670;28;20235;-86
2023/01/20 04:23:29;;;;;;;6.23;5.10;;;-0.40;99.90;;;;;;5115522;28;20254;-84
2023/01/20 04:25:58;;;;;;;4.47;4.13;;;-0.40;99.90;;;;;;5115494;28;20218;-85
2023/01/20 04:28:26;;;;;;;6.17;4.63;;;-0.40;99.90;;;;;;5114903;28;20208;-84
2023/01/20 04:30:55;;;;;;;8.70;4.80;;;-0.50;99.90;;;;;;5115873;28;20196;-85
2023/01/20 04:33:23;;;;;;;7.47;5.30;;;-0.50;99.90;;;;;;5115218;28;20228;-84
2023/01/20 04:35:53;;;;;;;4.67;4.17;;;-0.50;99.90;;;;;;5114970;28;20306;-85
2023/01/20 04:38:21;;;;;;;6.33;4.87;;;-0.50;99.90;;;;;;5115211;28;20208;-85
2023/01/20 04:40:49;;;;;;;5.27;4.77;;;-0.50;99.90;;;;;;5115370;28;20208;-84
2023/01/20 04:43:18;;;;;;;6.27;5.57;;;-0.60;99.90;;;;;;5115080;28;20223;-84
2023/01/20 04:45:46;;;;;;;4.97;4.57;;;-0.60;99.90;;;;;;5115357;28;20290;-85
2023/01/20 04:48:14;;;;;;;6.07;5.47;;;-0.50;99.90;;;;;;5114856;28;20216;-85
2023/01/20 04:50:43;;;;;;;14.40;5.87;;;-0.50;99.90;;;;;;5115031;28;20227;-84
2023/01/20 04:53:17;;;;;;;6.40;5.80;;;-0.50;99.90;;;;;;5115103;28;20228;-85
2023/01/20 04:55:46;;;;;;;6.50;5.90;;;-0.50;99.90;;;;;;5114885;28;20208;-85
2023/01/20 04:58:14;;;;;;;6.80;5.93;;;-0.50;99.90;;;;;;5115123;28;20236;-85
2023/01/20 05:00:43;;;;;;;7.37;6.47;;;-0.50;99.90;;;;;;5113912;28;20208;-84
2023/01/20 05:03:11;;;;;;;9.67;6.50;;;-0.60;99.90;;;;;;5115103;28;20287;-86
2023/01/20 05:05:39;;;;;;;6.57;5.87;;;-0.50;99.90;;;;;;5114576;28;20196;-86
2023/01/20 05:08:08;;;;;;;7.17;6.47;;;-0.60;99.90;;;;;;5114846;28;20206;-85
2023/01/20 05:10:37;;;;;;;8.43;6.13;;;-0.60;99.90;;;;;;5115344;28;20210;-86
2023/01/20 05:13:05;;;;;;;6.63;6.03;;;-0.70;99.90;;;;;;5115010;28;20239;-85
2023/01/20 05:15:34;;;;;;;8.33;6.73;;;-0.70;99.90;;;;;;5114455;28;20230;-85
2023/01/20 05:18:02;;;;;;;6.97;6.30;;;-0.70;99.90;;;;;;5114441;28;20215;-84
2023/01/20 05:20:30;;;;;;;9.83;6.50;;;-0.70;99.90;;;;;;5114339;28;20206;-84
2023/01/20 05:22:59;;;;;;;7.43;6.27;;;-0.70;99.90;;;;;;5114606;28;20227;-85
2023/01/20 05:25:29;;;;;;;7.30;6.50;;;-0.70;99.90;;;;;;5114983;28;20214;-85
2023/01/20 05:27:59;;;;;;;8.10;6.97;;;-0.70;99.90;;;;;;5114137;28;20203;-85
2023/01/20 05:30:28;;;;;;;7.10;6.37;;;-0.70;99.90;;;;;;5114650;28;20207;-85
2023/01/20 05:32:56;;;;;;;9.63;6.53;;;-0.80;99.90;;;;;;5114272;28;20235;-85
2023/01/20 05:35:24;;;;;;;6.77;6.13;;;-0.70;99.90;;;;;;5113814;28;20230;-84
2023/01/20 05:37:54;;;;;;;7.40;6.50;;;-0.70;99.90;;;;;;5114603;28;20222;-85
2023/01/20 05:40:22;;;;;;;7.47;6.70;;;-0.70;99.90;;;;;;5114361;28;20210;-84
2023/01/20 05:42:51;;;;;;;9.57;7.33;;;-0.70;99.90;;;;;;5113935;28;20277;-85
2023/01/20 05:45:20;;;;;;;12.47;7.53;;;-0.80;99.90;;;;;;5114138;28;20278;-86
2023/01/20 05:47:53;;;;;;;7.03;6.33;;;-0.70;99.90;;;;;;5114040;28;20242;-85
2023/01/20 05:50:22;;;;;;;8.20;6.80;;;-0.80;99.90;;;;;;5114400;28;20208;-85
2023/01/20 05:52:50;;;;;;;7.67;6.87;;;-0.70;99.90;;;;;;5113611;28;20219;-85
2023/01/20 05:55:19;;;;;;;6.53;5.93;;;-0.70;99.90;;;;;;5113777;28;20220;-86
2023/01/20 05:57:47;;;;;;;9.37;7.13;;;-0.70;99.90;;;;;;5113677;28;20259;-85
2023/01/20 06:00:17;;;;;;;6.27;5.67;;;-0.70;99.90;;;;;;5113746;28;20208;-85
2023/01/20 06:02:47;;;;;;;7.70;6.50;;;-0.70;99.90;;;;;;5113663;28;20228;-85
2023/01/20 06:05:16;;;;;;;6.80;5.93;;;-0.70;99.90;;;;;;5113713;28;20294;-85
2023/01/20 06:07:44;;;;;;;7.43;6.70;;;-0.70;99.90;;;;;;5113038;28;20212;-85
2023/01/20 06:10:13;;;;;;;9.23;7.40;;;-0.70;99.90;;;;;;5113479;28;20216;-85
2023/01/20 06:12:41;;;;;;;8.40;5.67;;;-0.60;99.90;;;;;;5113374;28;20310;-84
2023/01/20 06:15:10;;;;;;;8.33;6.93;;;-0.60;99.90;;;;;;5113566;28;20216;-85
2023/01/20 06:17:39;;;;;;;6.63;5.97;;;-0.60;99.90;;;;;;5113411;28;20258;-84
2023/01/20 06:20:12;;;;;;;7.37;5.77;;;-0.50;99.90;;;;;;5113237;28;20299;-85
2023/01/20 06:22:40;;;;;;;9.20;6.27;;;-0.50;99.90;;;;;;5113492;28;20224;-86
2023/01/20 06:25:09;;;;;;;7.53;6.27;;;-0.50;99.90;;;;;;5113252;28;20206;-85
2023/01/20 06:27:37;;;;;;;7.50;6.20;;;-0.50;99.90;;;;;;5113083;28;20208;-85
2023/01/20 06:30:07;;;;;;;9.03;6.17;;;-0.40;99.90;;;;;;5113077;28;20207;-85
2023/01/20 06:32:35;;;;;;;7.10;6.10;;;-0.40;99.90;;;;;;5113399;28;20243;-85
2023/01/20 06:35:03;;;;;;;7.30;6.17;;;-0.30;99.90;;;;;;5112858;28;20220;-84
2023/01/20 06:37:33;;;;;;;6.87;6.27;;;-0.40;99.90;;;;;;5112658;28;20206;-85
2023/01/20 06:40:01;;;;;;;5.90;5.37;;;-0.40;99.90;;;;;;5113104;28;20211;-86
2023/01/20 06:42:31;;;;;;;6.83;6.00;;;-0.30;99.90;;;;;;5113218;28;20235;-85
2023/01/20 06:44:59;;;;;;;7.03;6.13;;;-0.30;99.90;;;;;;5113226;28;20196;-85
2023/01/20 06:47:28;;;;;;;7.17;6.47;;;-0.30;99.90;;;;;;5112579;28;20259;-85
2023/01/20 06:49:56;;;;;;;6.43;5.83;;;-0.30;99.90;;;;;;5113395;28;20211;-86
2023/01/20 06:52:24;;;;;;;8.00;6.03;;;-0.30;99.90;;;;;;5113095;28;20223;-86
2023/01/20 06:54:54;;;;;;;10.80;6.70;;;-0.20;99.90;;;;;;5112878;28;20211;-85
2023/01/20 06:57:22;;;;;;;6.23;5.63;;;-0.30;99.90;;;;;;5112760;28;20207;-84
2023/01/20 07:00:30;;;;;;;6.73;6.00;;;-0.20;99.90;;;;;;5112606;28;20211;-85
2023/01/20 07:03:11;;;;;;;7.63;6.50;;;-0.20;99.90;;;;;;5113002;28;20224;-84
2023/01/20 07:06:03;;;;;;;10.07;6.90;;;-0.20;99.90;;;;;;5112958;28;20223;-85
2023/01/20 07:08:34;;;;;;;7.43;6.07;;;-0.20;99.90;;;;;;5106390;28;20207;-85
2023/01/20 07:11:17;;;;;;;;;;;;;;;;;;;;;
2023/01/20 07:13:52;;;;;;;6.60;6.00;;;0.00;99.90;;;;;;5112543;28;20224;-86
2023/01/20 07:16:20;;;;;;;10.27;6.83;;;0.00;99.90;;;;;;5112629;28;20211;-85
2023/01/20 07:18:50;;;;;;;7.53;5.77;;;0.00;99.90;;;;;;5112558;28;20215;-85
2023/01/20 07:21:26;;;;;;;5.43;5.00;;;0.00;99.90;;;;;;5112407;28;20260;-85
2023/01/20 07:24:03;;;;;;;6.03;5.47;;;0.00;99.90;;;;;;5114512;28;20228;-86
2023/01/20 07:26:46;;;;;;;5.93;5.43;;;0.00;99.90;;;;;;5116698;28;20199;-85
2023/01/20 07:29:14;;;;;;;7.83;5.50;;;0.00;99.90;;;;;;5116352;28;20207;-86
2023/01/20 07:32:11;;;;;;;7.97;6.27;;;0.00;99.90;;;;;;5116664;28;20211;-85
2023/01/20 07:34:54;;;;;;;7.00;6.23;;;0.00;99.90;;;;;;5115728;28;20257;-86
2023/01/20 07:37:24;;;;;;;7.07;5.53;;;0.00;99.90;;;;;;5116492;28;20191;-86
2023/01/20 07:40:09;;;;;;;8.43;5.97;;;0.00;99.90;;;;;;5116077;28;20244;-86
2023/01/20 07:42:40;;;;;;;6.00;5.40;;;0.00;99.90;;;;;;5116658;28;20306;-84
2023/01/20 07:45:09;;;;;;;5.83;5.17;;;0.00;99.90;;;;;;5116198;28;20207;-86
2023/01/20 07:47:41;;;;;;;5.37;4.87;;;0.10;99.90;;;;;;5116199;28;20211;-84
2023/01/20 07:50:25;;;;;;;6.60;5.80;;;0.10;99.90;;;;;;5116640;28;20222;-84
2023/01/20 07:52:54;;;;;;;6.33;5.73;;;0.10;99.90;;;;;;5115774;28;20251;-86
2023/01/20 07:55:22;;;;;;;5.80;5.30;;;0.20;99.90;;;;;;5115662;28;20224;-84
2023/01/20 07:57:54;;;;;;;6.53;5.43;;;0.20;99.90;;;;;;5115739;28;20215;-85
2023/01/20 08:00:23;;;;;;;5.63;5.13;;;0.30;99.90;;;;;;5115973;28;20199;-84
2023/01/20 08:02:51;;;;;;;8.20;5.33;;;0.30;99.90;;;;;;5115934;28;20227;-84
2023/01/20 08:05:21;;;;;;;6.23;5.17;;;0.40;99.90;;;;;;5115637;28;20231;-84
2023/01/20 08:07:55;;;;;;;7.13;5.97;;;0.40;99.90;;;;;;5115026;28;20206;-84
2023/01/20 08:10:24;;;;;;;6.43;5.83;;;0.40;99.90;;;;;;5116007;28;20222;-85
2023/01/20 08:12:58;;;;;;;7.47;5.43;;;0.40;99.90;;;;;;5115608;28;20238;-85
2023/01/20 08:15:26;;;;;;;5.60;5.00;;;0.50;99.90;;;;;;5115455;28;20222;-84
2023/01/20 08:17:55;;;;;;;5.70;5.00;;;0.40;99.90;;;;;;5115789;28;20206;-85
2023/01/20 08:20:23;;;;;;;6.00;4.40;;;0.40;99.90;;;;;;5115535;28;20204;-84
2023/01/20 08:22:51;;;;;;;6.17;5.43;;;0.50;99.90;;;;;;5115446;28;20234;-86
2023/01/20 08:25:20;;;;;;;5.67;5.10;;;0.60;99.90;;;;;;5115175;28;20204;-84
2023/01/20 08:27:49;;;;;;;6.20;5.60;;;0.60;99.90;;;;;;5115045;28;20218;-84
2023/01/20 08:30:19;;;;;;;7.13;5.40;;;0.50;99.90;;;;;;5115388;28;20218;-85
2023/01/20 08:32:48;;;;;;;7.93;5.23;;;0.60;99.90;;;;;;5115141;28;20228;-85
2023/01/20 08:35:16;;;;;;;4.27;3.87;;;0.70;99.90;;;;;;5114842;28;20211;-85
2023/01/20 08:37:45;;;;;;;6.00;5.00;;;0.70;99.90;;;;;;5115311;28;20203;-84
2023/01/20 08:40:14;;;;;;;8.80;5.37;;;0.80;99.90;;;;;;5115253;28;20229;-84
2023/01/20 08:42:42;;;;;;;12.33;5.23;;;0.80;99.90;;;;;;5114978;28;20259;-85
2023/01/20 08:45:11;;;;;;;4.97;4.50;;;0.90;99.90;;;;;;5114979;28;20275;-85
2023/01/20 08:47:44;;;;;;;6.97;5.20;;;0.90;99.90;;;;;;5115008;28;20296;-85
2023/01/20 08:50:24;;;;;;;10.83;5.13;;;0.80;99.90;;;;;;5115133;28;20204;-84
2023/01/20 08:52:53;;;;;;;5.13;4.57;;;0.90;99.90;;;;;;5115138;28;20216;-85
2023/01/20 08:55:42;;;;;;;15.65;5.03;;;1.00;99.90;;;;;;5114616;28;20203;-85
2023/01/20 08:58:16;;;;;;;6.80;5.70;;;1.10;99.90;;;;;;5114679;28;20199;-84
2023/01/20 09:00:44;;;;;;;6.43;5.67;;;1.10;99.90;;;;;;5114912;28;20203;-85
2023/01/20 09:03:14;;;;;;;4.97;4.47;;;1.20;99.90;;;;;;5115138;28;20227;-85
2023/01/20 09:05:58;;;;;;;7.37;4.40;;;1.30;99.90;;;;;;5114361;28;20294;-85
2023/01/20 09:08:26;;;;;;;6.53;5.57;;;1.30;99.90;;;;;;5114639;28;20203;-84
2023/01/20 09:10:56;;;;;;;4.30;3.90;;;1.40;99.90;;;;;;5114735;28;20263;-85
2023/01/20 09:13:39;;;;;;;12.53;5.37;;;1.40;99.90;;;;;;5114483;28;20227;-85
2023/01/20 09:16:08;;;;;;;3.73;3.43;;;1.30;99.90;;;;;;5114531;28;20215;-84
2023/01/20 09:18:39;;;;;;;5.43;4.73;;;1.30;99.90;;;;;;5114329;28;20283;-84
2023/01/20 09:21:08;;;;;;;4.55;4.15;;;1.40;99.90;;;;;;5114604;28;20233;-85
2023/01/20 09:23:39;;;;;;;5.47;4.90;;;1.50;99.90;;;;;;5114358;28;20215;-85
2023/01/20 09:26:08;;;;;;;5.68;4.32;;;1.60;99.90;;;;;;5114253;28;20192;-85
2023/01/20 09:28:56;;;;;;;5.38;4.00;;;1.60;99.90;;;;;;5113909;28;20207;-85
2023/01/20 09:31:57;;;;;;;5.53;4.10;;;1.70;99.90;;;;;;5114411;28;20200;-85
2023/01/20 09:43:55;;;;;;;6.15;4.30;;;1.90;99.90;;;;;;5113636;28;20234;-86
2023/01/20 09:46:41;;;;;;;4.63;4.20;;;2.00;99.90;;;;;;5113113;28;20204;-85
2023/01/20 09:55:11;;;;;;;4.88;4.47;;;2.30;99.90;;;;;;5113476;28;20243;-85
2023/01/20 09:57:42;;;;;;;4.57;4.10;;;2.40;99.90;;;;;;5112923;28;20334;-85
2023/01/20 10:00:21;;;;;;;5.53;4.57;;;2.50;99.90;;;;;;5113340;28;20199;-84
2023/01/20 10:03:07;;;;;;;5.28;4.45;;;2.50;99.90;;;;;;5113307;28;20227;-84
2023/01/20 10:05:39;;;;;;;13.50;4.75;;;2.50;99.90;;;;;;5113648;28;20205;-84
2023/01/20 10:08:20;;;;;;;4.60;4.10;;;2.50;99.90;;;;;;5113288;28;20235;-84
2023/01/20 10:10:55;;;;;;;4.43;3.85;;;2.70;99.90;;;;;;5113120;28;20303;-85
2023/01/20 10:13:29;;;;;;;5.40;4.90;;;2.70;99.90;;;;;;5113038;28;20215;-85
2023/01/20 10:16:12;;;;;;;4.55;4.15;;;2.70;99.90;;;;;;5113607;28;20302;-85
2023/01/20 10:18:47;;;;;;;4.05;3.67;;;2.70;99.90;;;;;;5113398;28;20204;-85
2023/01/20 10:21:25;;;;;;;4.20;3.90;;;2.60;99.90;;;;;;5113468;28;20212;-84
2023/01/20 10:23:57;;;;;;;4.47;4.07;;;2.30;99.90;;;;;;5113259;28;20227;-84
2023/01/20 10:26:30;;;;;;;6.68;4.65;;;2.30;99.90;;;;;;5113007;28;20204;-84
2023/01/20 10:29:11;;;;;;;7.05;4.47;;;2.30;99.90;;;;;;5112825;28;20211;-84
2023/01/20 10:31:52;;;;;;;5.38;4.88;;;2.40;99.90;;;;;;5113427;28;20211;-85
2023/01/20 10:34:32;;;;;;;5.45;4.95;;;2.40;99.90;;;;;;5113035;28;20302;-84
2023/01/20 10:37:05;;;;;;;6.25;4.72;;;2.30;99.90;;;;;;5112312;28;20238;-86
2023/01/20 10:39:47;;;;;;;4.57;4.18;;;2.30;99.90;;;;;;5113006;28;20215;-87
2023/01/20 10:42:17;;;;;;;4.90;4.40;;;2.30;99.90;;;;;;5112590;28;20250;-84
2023/01/20 10:44:48;;;;;;;5.05;4.25;;;2.40;99.90;;;;;;5113195;28;20211;-86
2023/01/20 10:47:23;;;;;;;5.68;4.68;;;2.60;99.90;;;;;;5112904;28;20213;-86
2023/01/20 10:50:17;;;;;;;5.53;4.75;;;2.70;99.90;;;;;;5113184;28;20286;-86
2023/01/20 10:53:05;;;;;;;8.05;4.28;;;2.80;99.90;;;;;;5112697;28;20250;-86
2023/01/20 10:55:49;;;;;;;6.20;4.47;;;2.80;99.90;;;;;;5112829;28;20218;-86
2023/01/20 10:58:24;;;;;;;5.38;4.72;;;3.10;99.90;;;;;;5113144;28;20318;-85
2023/01/20 11:00:53;;;;;;;4.15;3.75;;;3.00;99.90;;;;;;5117216;28;20214;-85
2023/01/20 11:03:22;;;;;;;5.10;4.70;;;3.30;99.90;;;;;;5116911;28;20223;-86
2023/01/20 11:05:53;;;;;;;4.65;4.18;;;3.50;99.90;;;;;;5116883;28;20270;-85
2023/01/20 11:08:23;;;;;;;5.22;4.53;;;3.40;99.90;;;;;;5116360;28;20206;-86
2023/01/20 11:11:10;;;;;;;5.05;4.55;;;3.20;99.90;;;;;;5117053;28;20205;-86
2023/01/20 11:13:38;;;;;;;10.10;5.03;;;3.20;99.90;;;;;;5117047;28;20227;-85
2023/01/20 11:16:14;;;;;;;6.03;4.22;;;3.50;99.90;;;;;;5116668;28;20196;-86
2023/01/20 11:18:54;;;;;;;12.27;5.07;;;3.40;99.90;;;;;;5116480;28;20227;-86
2023/01/20 11:21:24;;;;;;;6.07;4.90;;;3.30;99.90;;;;;;5116606;28;20207;-86
2023/01/20 11:23:59;;;;;;;6.60;5.30;;;3.30;99.90;;;;;;5116568;28;20227;-86
2023/01/20 11:26:34;;;;;;;4.38;3.97;;;3.20;99.90;;;;;;5116898;28;20199;-86
2023/01/20 11:29:28;;;;;;;4.38;3.90;;;2.90;99.90;;;;;;5116821;28;20205;-86
2023/01/20 11:31:58;;;;;;;6.57;4.82;;;2.80;99.90;;;;;;5116224;28;20208;-85
2023/01/20 11:34:28;;;;;;;3.53;3.22;;;2.70;99.90;;;;;;5116452;28;20247;-86
2023/01/20 11:37:19;;;;;;;3.83;3.53;;;2.70;99.90;;;;;;5116470;28;20196;-86
2023/01/20 11:40:00;;;;;;;7.03;4.60;;;2.70;99.90;;;;;;5116574;28;20212;-86
2023/01/20 11:42:42;;;;;;;3.85;3.55;;;2.70;99.90;;;;;;5116722;28;20223;-86
2023/01/20 11:45:25;;;;;;;4.78;4.28;;;2.80;99.90;;;;;;5115932;28;20213;-86
2023/01/20 11:48:10;;;;;;;6.57;5.40;;;2.80;99.90;;;;;;5116217;28;20204;-86
2023/01/20 11:50:39;;;;;;;3.88;3.58;;;2.90;99.90;;;;;;5115819;28;20267;-86
2023/01/20 11:53:18;;;;;;;4.22;3.65;;;2.80;99.90;;;;;;5116389;28;20330;-85
2023/01/20 11:56:00;;;;;;;4.97;4.20;;;2.90;99.90;;;;;;5116524;28;20307;-86
2023/01/20 11:58:33;;;;;;;4.35;3.95;;;2.80;99.90;;;;;;5115625;28;20310;-86
2023/01/20 12:01:13;;;;;;;4.60;4.20;;;2.80;99.90;;;;;;5116081;28;20210;-86
2023/01/20 12:04:19;;;;;;;4.03;3.72;;;3.00;99.90;;;;;;5115983;28;20222;-86
2023/01/20 12:06:57;;;;;;;6.45;4.40;;;3.20;99.90;;;;;;5082156;28;20290;-86
2023/01/20 12:09:40;;;;;;;4.30;3.92;;;3.30;99.90;;;;;;5115273;28;20203;-86
2023/01/20 12:12:15;;;;;;;5.30;4.38;;;3.30;99.90;;;;;;5115879;28;20230;-86
2023/01/20 12:14:49;;;;;;;5.45;4.78;;;3.40;99.90;;;;;;5115771;28;20209;-86
2023/01/20 12:17:44;;;;;;;5.28;4.78;;;3.40;99.90;;;;;;5115708;28;20218;-86
2023/01/20 12:20:23;;;;;;;5.97;4.63;;;3.30;99.90;;;;;;5115451;28;20347;-86
2023/01/20 12:23:13;;;;;;;4.65;4.13;;;3.40;99.90;;;;;;5115507;28;20335;-87
2023/01/20 12:25:55;;;;;;;4.88;4.03;;;3.40;99.90;;;;;;5115233;28;20207;-84
2023/01/20 12:28:38;;;;;;;4.97;4.47;;;3.30;99.90;;;;;;5115045;28;20207;-86
2023/01/20 12:31:13;;;;;;;5.32;4.82;;;3.20;99.90;;;;;;5115690;28;20191;-86
2023/01/20 12:33:45;;;;;;;7.10;4.70;;;3.20;99.90;;;;;;5115178;28;20242;-86
2023/01/20 12:36:45;;;;;;;4.32;3.92;;;3.30;99.90;;;;;;5115169;28;20212;-86
2023/01/20 12:39:42;;;;;;;5.18;4.25;;;3.30;99.90;;;;;;5115057;28;20314;-85
2023/01/20 12:42:46;;;;;;;4.93;4.07;;;3.20;99.90;;;;;;5114782;28;20298;-86
2023/01/20 12:45:27;;;;;;;5.53;5.03;;;2.90;99.90;;;;;;5115149;28;20200;-86
2023/01/20 12:48:25;;;;;;;10.52;8.23;;;2.90;99.90;;;;;;5114986;28;20231;-86
2023/01/20 12:51:19;;;;;;;5.40;4.68;;;3.00;99.90;;;;;;5114919;28;20203;-85
2023/01/20 12:54:10;;;;;;;6.22;5.43;;;3.10;99.90;;;;;;5115002;28;20308;-85
2023/01/20 12:56:56;;;;;;;4.10;3.70;;;3.10;99.90;;;;;;5114392;28;20253;-85
2023/01/20 12:59:38;;;;;;;5.63;5.13;;;2.90;99.90;;;;;;5114981;28;20243;-85
2023/01/20 13:02:42;;;;;;;8.88;5.00;;;2.80;99.90;;;;;;5114907;28;20208;-85
2023/01/20 13:05:38;;;;;;;7.55;4.40;;;2.80;99.90;;;;;;5114852;28;20199;-86
2023/01/20 13:08:23;;;;;;;8.63;5.05;;;2.70;99.90;;;;;;5097657;28;20223;-88
2023/01/20 13:11:05;;;;;;;4.43;4.03;;;2.70;99.90;;;;;;5114610;28;20223;-85
2023/01/20 13:13:44;;;;;;;5.45;4.57;;;2.70;99.90;;;;;;5114764;28;20223;-86
2023/01/20 13:16:33;;;;;;;4.85;4.43;;;2.80;99.90;;;;;;5114643;28;20206;-88
2023/01/20 13:19:19;;;;;;;5.38;4.78;;;2.90;99.90;;;;;;5113077;28;20220;-88
2023/01/20 13:21:50;;;;;;;3.90;3.60;;;2.80;99.90;;;;;;5113442;28;20204;-89
2023/01/20 13:24:29;;;;;;;8.18;4.53;;;2.80;99.90;;;;;;5100183;22;20323;-89
2023/01/20 13:26:59;;;;;;;4.68;3.97;;;2.80;99.90;;;;;;5094038;28;20265;-90
2023/01/20 13:29:43;;;;;;;6.30;4.75;;;2.60;99.90;;;;;;5093961;28;20201;-88
2023/01/20 13:32:32;;;;;;;4.53;4.10;;;2.60;99.90;;;;;;5093799;28;20268;-92
2023/01/20 13:35:50;;;;;;;6.57;4.43;;;2.50;99.90;;;;;;5093881;28;20208;-89
2023/01/20 13:38:29;;;;;;;4.68;4.28;;;2.50;99.90;;;;;;5093322;28;20343;-89
2023/01/20 13:41:29;;;;;;;;;;;;;;;;;;;;;
2023/01/20 13:43:58;;;;;;;5.03;4.53;;;2.60;99.90;;;;;;5093172;28;20319;-91
2023/01/20 13:46:49;;;;;;;5.15;4.65;;;2.50;99.90;;;;;;5093621;28;20214;-88